Time;durP1;ratioP1;P1;durP2;ratioP2;P2;SDS_P1;SDS_P2;PMS_P1;PMS_P2;Temp;Humidity;BMP_temperature;BMP_pressure;BME280_temperature;BME280_humidity;BME280_pressure;Samples;Min_cycle;Max_cycle;Signal;HPM_P1;HPM_P2
2022/09/22 00:01:23;;;;;;;3.25;1.27;;;18.30;99.90;;;;;;5067835;28;20552;-78
2022/09/22 00:03:56;;;;;;;6.68;2.22;;;18.30;99.90;;;;;;5078233;28;20111;-78
2022/09/22 00:06:29;;;;;;;9.02;1.10;;;18.30;99.90;;;;;;5063245;28;20403;-77
2022/09/22 00:08:59;;;;;;;5.60;1.42;;;18.40;99.90;;;;;;5071358;28;20808;-77
2022/09/22 00:11:34;;;;;;;3.78;1.05;;;18.40;99.90;;;;;;5054401;28;20076;-82
2022/09/22 00:14:08;;;;;;;6.05;1.67;;;18.50;99.90;;;;;;5078941;28;20100;-80
2022/09/22 00:16:48;;;;;;;9.98;1.15;;;18.50;99.90;;;;;;5064309;28;20028;-85
2022/09/22 00:19:23;;;;;;;12.07;1.80;;;18.60;99.90;;;;;;5075333;28;20030;-83
2022/09/22 00:21:50;;;;;;;4.95;1.25;;;18.60;99.90;;;;;;5076417;28;20391;-81
2022/09/22 00:24:21;;;;;;;2.75;0.70;;;18.70;99.90;;;;;;5073152;28;20062;-78
2022/09/22 00:26:49;;;;;;;7.07;0.80;;;18.80;99.90;;;;;;5070691;28;20495;-81
2022/09/22 00:29:17;;;;;;;4.72;0.65;;;18.90;99.90;;;;;;5071651;28;20055;-81
2022/09/22 00:31:45;;;;;;;5.43;1.48;;;19.20;99.90;;;;;;5079663;28;20050;-81
2022/09/22 00:34:17;;;;;;;4.28;0.73;;;19.40;99.90;;;;;;5073712;28;20036;-78
2022/09/22 00:36:45;;;;;;;4.43;1.45;;;19.50;99.90;;;;;;5079980;28;20119;-79
2022/09/22 00:39:13;;;;;;;10.30;1.50;;;19.50;99.90;;;;;;5090877;28;20048;-81
2022/09/22 00:41:44;;;;;;;4.43;1.50;;;19.40;99.90;;;;;;5074146;28;20024;-81
2022/09/22 00:44:30;;;;;;;5.72;1.77;;;19.40;99.90;;;;;;5069278;28;20107;-83
2022/09/22 00:47:26;;;;;;;5.90;1.85;;;19.30;99.90;;;;;;5069808;28;20075;-82
2022/09/22 00:50:09;;;;;;;6.70;1.58;;;19.30;99.90;;;;;;5070944;28;20039;-81
2022/09/22 00:52:51;;;;;;;3.65;1.48;;;19.30;99.90;;;;;;5083071;28;20204;-83
2022/09/22 00:55:58;;;;;;;13.23;1.60;;;19.20;99.90;;;;;;5062359;28;20022;-82
2022/09/22 00:58:54;;;;;;;8.07;1.60;;;19.10;99.90;;;;;;5066139;28;20033;-81
2022/09/22 01:01:21;;;;;;;9.23;1.48;;;18.90;99.90;;;;;;5056534;28;20029;-81
2022/09/22 01:03:50;;;;;;;6.25;1.20;;;18.90;99.90;;;;;;5078663;28;20032;-78
2022/09/22 01:06:21;;;;;;;5.72;2.20;;;19.00;99.90;;;;;;5088322;28;20425;-78
2022/09/22 01:08:49;;;;;;;6.15;0.85;;;19.00;99.90;;;;;;5072631;28;20029;-79
2022/09/22 01:11:19;;;;;;;7.32;1.17;;;19.10;99.90;;;;;;5075007;28;20037;-80
2022/09/22 01:14:20;;;;;;;4.03;0.60;;;19.40;99.90;;;;;;5075533;28;20024;-78
2022/09/22 01:17:08;;;;;;;5.00;1.27;;;19.80;99.90;;;;;;5070225;28;20025;-78
2022/09/22 01:20:11;;;;;;;4.63;1.10;;;20.00;99.90;;;;;;5075313;28;20028;-83
2022/09/22 01:22:56;;;;;;;3.28;1.08;;;19.90;99.90;;;;;;5080627;28;20058;-84
2022/09/22 01:25:39;;;;;;;4.63;1.42;;;19.50;99.90;;;;;;5094942;28;20016;-82
2022/09/22 01:28:27;;;;;;;1.52;0.43;;;19.40;99.90;;;;;;5072684;28;20483;-80
2022/09/22 01:31:19;;;;;;;2.60;0.93;;;19.40;99.90;;;;;;5075711;28;20040;-80
2022/09/22 01:34:15;;;;;;;5.88;1.65;;;19.50;99.90;;;;;;5063849;28;20044;-79
2022/09/22 01:36:55;;;;;;;4.53;0.68;;;19.50;99.90;;;;;;5040143;28;20059;-81
2022/09/22 01:39:37;;;;;;;9.93;1.42;;;19.40;99.90;;;;;;5073267;28;20039;-79
2022/09/22 01:42:16;;;;;;;4.70;0.95;;;19.50;99.90;;;;;;5078292;28;20035;-82
2022/09/22 01:44:52;;;;;;;1.98;0.75;;;19.60;99.90;;;;;;5080645;28;20462;-79
2022/09/22 01:47:34;;;;;;;2.63;1.17;;;19.60;99.90;;;;;;5069759;28;20107;-81
2022/09/22 01:50:08;;;;;;;5.05;0.93;;;19.60;99.90;;;;;;5066044;28;20070;-80
2022/09/22 01:52:38;;;;;;;3.22;1.10;;;19.70;99.90;;;;;;5059796;28;20041;-77
2022/09/22 01:55:12;;;;;;;5.47;1.45;;;19.90;99.90;;;;;;5071987;28;20054;-80
2022/09/22 01:58:01;;;;;;;8.95;1.35;;;20.20;99.90;;;;;;5079058;28;20032;-74
2022/09/22 02:00:30;;;;;;;6.20;1.77;;;20.30;99.90;;;;;;5060044;28;20048;-81
2022/09/22 02:03:06;;;;;;;2.63;0.68;;;20.30;99.90;;;;;;5061629;28;20024;-77
2022/09/22 02:05:49;;;;;;;4.43;1.00;;;20.20;99.90;;;;;;5073118;28;20111;-80
2022/09/22 02:08:39;;;;;;;7.07;1.23;;;20.20;99.90;;;;;;5073173;28;20533;-81
2022/09/22 02:11:18;;;;;;;5.00;0.75;;;20.20;99.90;;;;;;5070405;28;20032;-80
2022/09/22 02:13:47;;;;;;;6.00;1.17;;;20.20;99.90;;;;;;5087441;28;20027;-80
2022/09/22 02:16:17;;;;;;;5.88;0.90;;;20.40;99.90;;;;;;5081755;28;20025;-81
2022/09/22 02:18:59;;;;;;;3.65;0.75;;;20.60;99.90;;;;;;5072724;28;20020;-79
2022/09/22 02:21:28;;;;;;;6.68;1.45;;;20.70;99.90;;;;;;5066723;28;20060;-80
2022/09/22 02:23:55;;;;;;;4.80;1.20;;;20.80;99.80;;;;;;5056745;28;20051;-77
2022/09/22 02:26:29;;;;;;;2.60;0.40;;;20.80;99.90;;;;;;5065870;28;20031;-87
2022/09/22 02:29:04;;;;;;;6.00;1.50;;;20.70;99.40;;;;;;5065903;28;20048;-84
2022/09/22 02:31:36;;;;;;;7.60;1.48;;;20.60;99.60;;;;;;5063094;28;20060;-83
2022/09/22 02:34:04;;;;;;;8.07;1.50;;;20.70;99.90;;;;;;5075404;28;20097;-86
2022/09/22 02:36:52;;;;;;;5.38;1.60;;;20.80;99.60;;;;;;5068107;28;20443;-79
2022/09/22 02:39:39;;;;;;;4.65;1.25;;;20.80;99.70;;;;;;5071538;28;20036;-79
2022/09/22 02:42:21;;;;;;;3.38;0.85;;;20.90;99.50;;;;;;5064520;28;20137;-78
2022/09/22 02:45:16;;;;;;;7.25;1.17;;;20.90;99.60;;;;;;5065363;28;20035;-81
2022/09/22 02:47:53;;;;;;;5.22;0.93;;;20.70;99.40;;;;;;5037412;28;20067;-79
2022/09/22 02:50:23;;;;;;;5.78;1.60;;;20.60;99.90;;;;;;5069144;28;20028;-80
2022/09/22 02:52:58;;;;;;;2.67;0.50;;;20.50;99.90;;;;;;5069071;28;20029;-79
2022/09/22 02:55:25;;;;;;;3.30;0.98;;;20.40;99.90;;;;;;5066458;28;20070;-80
2022/09/22 02:57:53;;;;;;;2.13;0.75;;;20.30;99.90;;;;;;5068101;28;20141;-80
2022/09/22 03:00:21;;;;;;;4.13;1.08;;;20.30;99.90;;;;;;5061657;28;20028;-79
2022/09/22 03:02:48;;;;;;;2.75;0.98;;;20.30;99.90;;;;;;5056499;28;20502;-81
2022/09/22 03:05:16;;;;;;;2.70;1.08;;;20.20;99.90;;;;;;5055337;28;20025;-83
2022/09/22 03:07:43;;;;;;;1.63;0.63;;;20.20;99.90;;;;;;5068654;28;20120;-89
2022/09/22 03:10:11;;;;;;;6.10;0.85;;;20.10;99.90;;;;;;5068675;28;20029;-84
2022/09/22 03:12:41;;;;;;;3.00;0.75;;;20.20;99.90;;;;;;5062806;28;20064;-81
2022/09/22 03:15:13;;;;;;;4.53;0.70;;;20.20;99.90;;;;;;5065686;28;20028;-80
2022/09/22 03:17:41;;;;;;;2.65;0.70;;;20.20;99.90;;;;;;5071683;28;20072;-82
2022/09/22 03:20:11;;;;;;;3.67;0.75;;;20.20;99.90;;;;;;5072948;28;20042;-83
2022/09/22 03:22:39;;;;;;;6.47;1.00;;;20.10;99.90;;;;;;5065270;28;20431;-81
2022/09/22 03:25:08;;;;;;;3.45;0.57;;;20.20;99.90;;;;;;5072296;28;20082;-79
2022/09/22 03:27:36;;;;;;;4.20;0.88;;;20.10;99.90;;;;;;5067199;28;20032;-81
2022/09/22 03:30:06;;;;;;;1.42;0.45;;;20.10;99.90;;;;;;5050704;28;20597;-78
2022/09/22 03:32:34;;;;;;;5.38;0.90;;;20.20;99.90;;;;;;5063791;28;20090;-78
2022/09/22 03:35:01;;;;;;;6.22;0.80;;;20.30;99.90;;;;;;5069430;28;20017;-80
2022/09/22 03:37:28;;;;;;;3.05;0.95;;;20.30;99.90;;;;;;5057669;28;20270;-78
2022/09/22 03:39:56;;;;;;;6.90;1.50;;;20.30;99.90;;;;;;5056061;28;20029;-79
2022/09/22 03:42:23;;;;;;;2.45;0.90;;;20.40;99.90;;;;;;5066129;28;20508;-83
2022/09/22 03:44:51;;;;;;;2.45;0.93;;;20.40;99.90;;;;;;5071635;28;20036;-86
2022/09/22 03:47:18;;;;;;;4.47;0.85;;;20.30;99.90;;;;;;5056039;28;20072;-82
2022/09/22 03:49:46;;;;;;;2.80;1.10;;;20.30;99.90;;;;;;5066795;28;20564;-80
2022/09/22 03:52:14;;;;;;;2.15;0.80;;;20.20;99.90;;;;;;5067558;28;20036;-80
2022/09/22 03:54:41;;;;;;;4.45;0.68;;;20.00;99.90;;;;;;5031533;28;20415;-81
2022/09/22 03:57:08;;;;;;;3.85;0.90;;;19.90;99.90;;;;;;5059791;28;20033;-81
2022/09/22 03:59:36;;;;;;;2.47;0.40;;;19.90;99.90;;;;;;5056589;28;20027;-80
2022/09/22 04:02:04;;;;;;;2.35;0.60;;;19.80;99.90;;;;;;5061397;28;20024;-85
2022/09/22 04:04:31;;;;;;;3.95;0.77;;;19.80;99.90;;;;;;5065638;28;20024;-84
2022/09/22 04:06:59;;;;;;;0.98;0.30;;;19.50;99.90;;;;;;5057213;28;20017;-86
2022/09/22 04:09:27;;;;;;;1.15;0.47;;;19.20;99.90;;;;;;5069339;28;20025;-77
2022/09/22 04:11:54;;;;;;;3.70;1.17;;;19.20;99.90;;;;;;5066466;28;20064;-82
2022/09/22 04:14:21;;;;;;;1.48;0.60;;;19.20;99.90;;;;;;5069094;28;20767;-84
2022/09/22 04:16:49;;;;;;;2.38;0.73;;;19.20;99.90;;;;;;5070083;28;20032;-82
2022/09/22 04:19:17;;;;;;;2.30;0.93;;;19.30;99.90;;;;;;5067610;28;20029;-81
2022/09/22 04:21:45;;;;;;;4.07;0.68;;;19.30;99.90;;;;;;5081958;28;20429;-77
2022/09/22 04:24:12;;;;;;;2.67;0.68;;;19.40;99.90;;;;;;5077369;28;20114;-87
2022/09/22 04:26:40;;;;;;;3.28;0.73;;;19.60;99.90;;;;;;5057155;28;20484;-81
2022/09/22 04:29:07;;;;;;;3.20;0.88;;;19.50;99.90;;;;;;5058778;28;20027;-78
2022/09/22 04:31:34;;;;;;;1.88;0.45;;;19.40;99.90;;;;;;5065842;28;20526;-84
2022/09/22 04:34:02;;;;;;;1.92;1.15;;;19.30;99.90;;;;;;5058326;28;21928;-79
2022/09/22 04:36:30;;;;;;;3.55;1.50;;;19.30;99.90;;;;;;5055035;28;20033;-80
2022/09/22 04:38:58;;;;;;;5.18;1.35;;;19.20;99.90;;;;;;5062168;28;20085;-80
2022/09/22 04:41:25;;;;;;;2.80;1.05;;;19.30;99.90;;;;;;5064254;28;20036;-81
2022/09/22 04:43:52;;;;;;;5.10;0.80;;;19.20;99.90;;;;;;5085976;28;20036;-82
2022/09/22 04:46:20;;;;;;;2.25;1.45;;;19.20;99.90;;;;;;5064339;28;20020;-83
2022/09/22 04:48:47;;;;;;;2.30;1.17;;;19.30;99.90;;;;;;5066571;28;20033;-79
2022/09/22 04:51:14;;;;;;;1.77;0.50;;;19.30;99.90;;;;;;5067612;28;20487;-84
2022/09/22 04:53:42;;;;;;;3.72;0.73;;;19.50;99.90;;;;;;5065459;28;20568;-81
2022/09/22 04:56:09;;;;;;;4.93;0.70;;;19.60;99.90;;;;;;5069321;28;20074;-84
2022/09/22 04:58:36;;;;;;;3.30;0.80;;;19.60;99.90;;;;;;5052731;28;20040;-83
2022/09/22 05:01:05;;;;;;;1.83;0.70;;;19.70;99.90;;;;;;5052089;28;20064;-78
2022/09/22 05:03:36;;;;;;;3.60;0.80;;;19.80;99.90;;;;;;5060981;28;20501;-78
2022/09/22 05:06:05;;;;;;;4.75;0.90;;;19.90;99.90;;;;;;5060883;28;20043;-77
2022/09/22 05:08:33;;;;;;;4.72;0.70;;;20.10;99.90;;;;;;5059011;28;20499;-76
2022/09/22 05:11:00;;;;;;;3.42;1.30;;;20.40;99.90;;;;;;5058317;28;20056;-79
2022/09/22 05:13:29;;;;;;;2.85;0.70;;;20.50;99.90;;;;;;5061976;28;20082;-78
2022/09/22 05:15:56;;;;;;;3.45;0.60;;;20.40;99.90;;;;;;5079110;28;20032;-79
2022/09/22 05:18:23;;;;;;;5.93;1.00;;;20.30;99.90;;;;;;5072708;28;20119;-82
2022/09/22 05:20:51;;;;;;;4.15;0.75;;;20.20;99.90;;;;;;5072981;28;20027;-78
2022/09/22 05:23:18;;;;;;;2.03;0.60;;;20.20;99.90;;;;;;5072958;28;20044;-81
2022/09/22 05:25:45;;;;;;;3.55;0.77;;;20.30;99.90;;;;;;5068573;28;20426;-79
2022/09/22 05:28:13;;;;;;;2.90;0.77;;;20.40;99.90;;;;;;5055742;28;20108;-81
2022/09/22 05:30:40;;;;;;;8.70;1.35;;;20.30;99.90;;;;;;5054529;28;20068;-79
2022/09/22 05:33:08;;;;;;;6.03;1.15;;;20.30;99.90;;;;;;5072300;28;20497;-82
2022/09/22 05:35:35;;;;;;;5.07;0.70;;;20.30;99.90;;;;;;5076370;28;20029;-79
2022/09/22 05:38:03;;;;;;;2.95;1.00;;;20.20;99.90;;;;;;5064779;28;20103;-79
2022/09/22 05:40:30;;;;;;;3.67;1.23;;;20.10;99.90;;;;;;5058815;28;20020;-80
2022/09/22 05:42:57;;;;;;;5.47;1.08;;;19.90;99.90;;;;;;5062292;28;20032;-79
2022/09/22 05:45:25;;;;;;;2.42;0.70;;;19.80;99.90;;;;;;5060708;28;20028;-82
2022/09/22 05:47:52;;;;;;;5.78;1.77;;;19.70;99.90;;;;;;5067923;28;20031;-83
2022/09/22 05:50:22;;;;;;;5.80;0.98;;;19.70;99.90;;;;;;5067710;28;20510;-85
2022/09/22 05:52:50;;;;;;;4.00;1.33;;;19.60;99.90;;;;;;5067866;28;20040;-79
2022/09/22 05:55:18;;;;;;;3.05;0.68;;;19.60;99.90;;;;;;5067992;28;20449;-85
2022/09/22 05:57:45;;;;;;;4.63;1.45;;;19.50;99.90;;;;;;5064199;28;20119;-78
2022/09/22 06:00:13;;;;;;;5.50;0.70;;;19.40;99.90;;;;;;5060162;28;20036;-81
2022/09/22 06:02:43;;;;;;;2.88;0.70;;;19.40;99.90;;;;;;5050251;28;20085;-82
2022/09/22 06:05:11;;;;;;;2.25;0.80;;;19.20;99.90;;;;;;5056699;28;20033;-81
2022/09/22 06:07:39;;;;;;;3.67;1.10;;;19.20;99.90;;;;;;5065987;28;20403;-81
2022/09/22 06:10:10;;;;;;;2.60;0.80;;;19.20;99.90;;;;;;5057926;28;20422;-79
2022/09/22 06:12:38;;;;;;;2.47;0.90;;;19.10;99.90;;;;;;5065592;28;20067;-83
2022/09/22 06:15:06;;;;;;;3.00;0.95;;;19.00;99.90;;;;;;5062550;28;22300;-81
2022/09/22 06:17:34;;;;;;;2.35;0.90;;;18.90;99.90;;;;;;5058667;28;20074;-79
2022/09/22 06:20:01;;;;;;;2.88;0.85;;;18.90;99.90;;;;;;5053389;28;20364;-78
2022/09/22 06:22:29;;;;;;;2.67;0.77;;;18.90;99.90;;;;;;5050467;28;20040;-80
2022/09/22 06:25:00;;;;;;;3.13;0.60;;;18.90;99.90;;;;;;5054864;28;20110;-79
2022/09/22 06:27:28;;;;;;;4.25;1.77;;;18.80;99.90;;;;;;5062137;28;20032;-83
2022/09/22 06:29:55;;;;;;;7.05;1.00;;;18.70;99.90;;;;;;5071034;28;20107;-83
2022/09/22 06:32:23;;;;;;;6.00;0.80;;;18.60;99.90;;;;;;5071131;28;20379;-82
2022/09/22 06:35:11;;;;;;;3.40;1.17;;;18.50;99.90;;;;;;5062683;28;20035;-80
2022/09/22 06:37:41;;;;;;;5.05;1.20;;;18.40;99.90;;;;;;5075140;28;20033;-80
2022/09/22 06:40:09;;;;;;;4.15;0.90;;;18.30;99.90;;;;;;5064051;28;20052;-81
2022/09/22 06:42:37;;;;;;;4.50;1.35;;;18.20;99.90;;;;;;5060049;28;20432;-82
2022/09/22 06:45:04;;;;;;;4.13;1.35;;;18.20;99.90;;;;;;5069847;28;20033;-82
2022/09/22 06:47:33;;;;;;;5.55;0.95;;;18.20;99.90;;;;;;5068097;28;20055;-81
2022/09/22 06:50:04;;;;;;;5.18;1.73;;;18.20;99.90;;;;;;5072605;28;20024;-80
2022/09/22 06:52:32;;;;;;;5.22;1.02;;;18.20;99.90;;;;;;5064023;28;20040;-81
2022/09/22 06:55:03;;;;;;;7.53;2.45;;;18.20;99.90;;;;;;5071684;28;20379;-80
2022/09/22 06:57:31;;;;;;;4.78;1.50;;;18.20;99.90;;;;;;5058944;28;20055;-79
2022/09/22 07:00:00;;;;;;;4.30;1.45;;;18.30;99.90;;;;;;5054214;28;20379;-79
2022/09/22 07:02:28;;;;;;;9.73;1.35;;;18.20;99.90;;;;;;5071723;28;20035;-80
2022/09/22 07:04:59;;;;;;;3.70;1.42;;;18.30;99.90;;;;;;5053722;28;20028;-82
2022/09/22 07:07:31;;;;;;;5.95;1.08;;;18.30;99.90;;;;;;5060434;28;20154;-80
2022/09/22 07:09:58;;;;;;;4.95;1.20;;;18.30;99.90;;;;;;5064191;28;20024;-79
2022/09/22 07:12:27;;;;;;;4.60;1.40;;;18.40;99.90;;;;;;5066077;28;20040;-78
2022/09/22 07:14:55;;;;;;;3.80;1.00;;;18.40;99.90;;;;;;5069442;28;20016;-79
2022/09/22 07:17:23;;;;;;;5.97;0.98;;;18.40;99.90;;;;;;5065635;28;20119;-80
2022/09/22 07:19:50;;;;;;;3.00;0.73;;;18.40;99.90;;;;;;5077280;28;20030;-80
2022/09/22 07:22:18;;;;;;;5.18;0.80;;;18.30;99.90;;;;;;5055454;28;20039;-81
2022/09/22 07:24:48;;;;;;;4.10;1.08;;;18.30;99.90;;;;;;5065565;28;20029;-84
2022/09/22 07:27:19;;;;;;;2.10;1.13;;;18.20;99.90;;;;;;5060465;28;20392;-82
2022/09/22 07:29:47;;;;;;;4.43;1.23;;;18.20;99.90;;;;;;5054748;28;20029;-84
2022/09/22 07:32:15;;;;;;;5.97;1.50;;;18.10;99.90;;;;;;5060382;28;20067;-82
2022/09/22 07:34:43;;;;;;;2.92;1.40;;;18.10;99.90;;;;;;5069024;28;20033;-81
2022/09/22 07:37:12;;;;;;;4.43;1.52;;;18.10;99.90;;;;;;5074889;28;20081;-81
2022/09/22 07:39:39;;;;;;;4.07;1.02;;;18.10;99.90;;;;;;5064604;28;20532;-80
2022/09/22 07:42:06;;;;;;;6.00;1.45;;;18.10;99.90;;;;;;5062813;28;20032;-81
2022/09/22 07:48:34;;;;;;;3.60;1.15;;;18.10;99.90;;;;;;5060016;28;20158;-81
2022/09/22 07:50:07;;;;;;;2.90;1.10;;;18.00;99.90;;;;;;5074842;28;20068;-83
2022/09/22 07:52:34;;;;;;;10.20;1.58;;;18.00;99.90;;;;;;5078466;28;20071;-80
2022/09/22 07:55:02;;;;;;;8.13;1.90;;;18.00;99.90;;;;;;5070165;28;20029;-83
2022/09/22 07:57:30;;;;;;;2.60;0.80;;;18.00;99.90;;;;;;5068665;28;20497;-80
2022/09/22 07:59:58;;;;;;;4.43;1.00;;;17.90;99.90;;;;;;5059923;28;20029;-82
2022/09/22 08:02:28;;;;;;;5.68;1.08;;;17.90;99.90;;;;;;5064032;28;20033;-80
2022/09/22 08:05:01;;;;;;;5.30;1.02;;;17.80;99.90;;;;;;5049182;28;20488;-83
2022/09/22 08:07:35;;;;;;;2.85;0.88;;;17.70;99.90;;;;;;5059374;28;20029;-82
2022/09/22 08:10:02;;;;;;;4.53;1.10;;;17.70;99.90;;;;;;5047202;28;20028;-82
2022/09/22 08:12:30;;;;;;;3.90;1.05;;;17.70;99.90;;;;;;5052390;28;20062;-82
2022/09/22 08:14:57;;;;;;;3.55;0.93;;;17.70;99.90;;;;;;5061249;28;20123;-83
2022/09/22 08:17:25;;;;;;;2.85;1.17;;;17.70;99.90;;;;;;5056221;28;20024;-84
2022/09/22 08:19:52;;;;;;;4.82;1.50;;;17.60;99.90;;;;;;5059043;28;20483;-82
2022/09/22 08:22:19;;;;;;;2.45;0.80;;;17.60;99.90;;;;;;5055249;28;20024;-80
2022/09/22 08:24:47;;;;;;;1.75;1.02;;;17.60;99.90;;;;;;5056042;28;20442;-79
2022/09/22 08:27:15;;;;;;;1.27;0.60;;;17.60;99.90;;;;;;5063439;28;20113;-81
2022/09/22 08:29:42;;;;;;;3.42;0.70;;;17.50;99.90;;;;;;5059171;28;20025;-82
2022/09/22 08:32:10;;;;;;;1.70;0.73;;;17.50;99.90;;;;;;5055731;28;20056;-81
2022/09/22 08:34:37;;;;;;;4.82;1.20;;;17.40;99.90;;;;;;5052092;28;20468;-83
2022/09/22 08:37:05;;;;;;;1.83;0.70;;;17.50;99.90;;;;;;5051186;28;20082;-80
2022/09/22 08:39:35;;;;;;;3.42;0.60;;;17.40;99.90;;;;;;5058590;28;20045;-83
2022/09/22 08:42:19;;;;;;;5.10;1.05;;;17.40;99.90;;;;;;5065909;28;20113;-81
2022/09/22 08:44:58;;;;;;;6.93;1.80;;;17.40;99.90;;;;;;5063353;28;20475;-80
2022/09/22 08:53:50;;;;;;;7.25;1.27;;;17.30;99.90;;;;;;5074301;28;20750;-81
2022/09/22 08:56:42;;;;;;;3.05;0.55;;;17.30;99.90;;;;;;5072080;28;20025;-82
2022/09/22 08:59:25;;;;;;;4.20;0.68;;;17.20;99.90;;;;;;5064218;28;20109;-83
2022/09/22 09:02:17;;;;;;;4.40;0.57;;;17.20;99.90;;;;;;5075075;28;20078;-81
2022/09/22 09:04:54;;;;;;;2.67;0.65;;;17.20;99.90;;;;;;5064839;28;20048;-82
2022/09/22 09:07:30;;;;;;;2.50;0.85;;;17.20;99.90;;;;;;5076847;28;20040;-83
2022/09/22 09:10:28;;;;;;;4.05;0.75;;;17.10;99.90;;;;;;5057276;28;20032;-81
2022/09/22 09:13:29;;;;;;;2.63;0.88;;;17.10;99.90;;;;;;5062292;28;20037;-82
2022/09/22 09:16:24;;;;;;;2.42;0.40;;;17.10;99.90;;;;;;5067510;28;20473;-81
2022/09/22 09:19:10;;;;;;;2.50;0.80;;;17.10;99.90;;;;;;5065613;28;20588;-81
2022/09/22 09:21:42;;;;;;;5.03;0.90;;;17.00;99.90;;;;;;5070295;28;20380;-83
2022/09/22 09:24:18;;;;;;;4.88;0.90;;;17.10;99.90;;;;;;5071138;28;20115;-81
2022/09/22 09:26:49;;;;;;;2.58;0.63;;;17.00;99.90;;;;;;5069135;28;20025;-82
2022/09/22 09:29:23;;;;;;;1.67;0.43;;;17.10;99.90;;;;;;5060751;28;20021;-83
2022/09/22 09:31:54;;;;;;;5.05;0.77;;;17.00;99.90;;;;;;5061130;28;20053;-83
2022/09/22 09:34:27;;;;;;;3.33;0.52;;;17.00;99.90;;;;;;5059380;28;20644;-80
2022/09/22 09:37:10;;;;;;;1.77;0.45;;;17.00;99.90;;;;;;5078249;28;20066;-83
2022/09/22 09:39:41;;;;;;;4.22;0.43;;;17.00;99.90;;;;;;5067291;28;20028;-82
2022/09/22 09:42:26;;;;;;;5.45;0.57;;;17.00;99.90;;;;;;5065776;28;20033;-88
2022/09/22 09:45:01;;;;;;;3.60;0.95;;;16.90;99.90;;;;;;5073270;28;20033;-90
2022/09/22 09:48:09;;;;;;;2.28;0.77;;;16.90;99.90;;;;;;5076120;28;20072;-87
2022/09/22 09:50:38;;;;;;;4.38;0.70;;;17.00;99.90;;;;;;5059360;28;20056;-86
2022/09/22 09:53:25;;;;;;;3.75;1.15;;;16.90;99.90;;;;;;5061585;28;20029;-88
2022/09/22 09:55:53;;;;;;;4.70;0.73;;;16.90;99.90;;;;;;5065971;28;20020;-87
2022/09/22 10:01:13;;;;;;;1.88;0.80;;;16.90;99.90;;;;;;5060400;28;20169;-88
2022/09/22 10:03:50;;;;;;;6.70;0.55;;;16.90;99.90;;;;;;5062241;28;20368;-89
2022/09/22 10:06:25;;;;;;;4.50;1.05;;;16.80;99.90;;;;;;5060637;28;20028;-87
2022/09/22 10:08:52;;;;;;;4.25;0.80;;;16.90;99.90;;;;;;5078881;28;20088;-87
2022/09/22 10:11:31;;;;;;;4.85;1.38;;;16.90;99.90;;;;;;5061730;28;20036;-85
2022/09/22 10:14:00;;;;;;;5.47;1.63;;;16.80;99.90;;;;;;5062336;28;20055;-89
2022/09/22 10:16:34;;;;;;;3.53;1.30;;;16.90;99.90;;;;;;5069038;28;20029;-87
2022/09/22 10:19:21;;;;;;;6.45;1.45;;;16.80;99.90;;;;;;5068135;28;20029;-88
2022/09/22 10:21:49;;;;;;;6.80;1.33;;;16.80;99.90;;;;;;5069978;28;20490;-85
2022/09/22 10:25:02;;;;;;;4.85;1.10;;;16.80;99.90;;;;;;5066464;28;20024;-84
2022/09/22 10:27:31;;;;;;;2.08;0.77;;;16.80;99.90;;;;;;5072131;28;20783;-85
2022/09/22 10:30:22;;;;;;;3.42;1.00;;;16.80;99.90;;;;;;5056200;28;20033;-89
2022/09/22 10:33:06;;;;;;;3.83;1.95;;;16.80;99.90;;;;;;5057276;28;20847;-82
2022/09/22 10:35:35;;;;;;;6.05;1.27;;;16.80;99.90;;;;;;5058463;28;20050;-86
2022/09/22 10:38:28;;;;;;;5.35;1.40;;;16.80;99.90;;;;;;5072808;28;20037;-89
2022/09/22 10:41:08;;;;;;;2.85;1.48;;;16.70;99.90;;;;;;5055944;28;20037;-80
2022/09/22 10:43:50;;;;;;;2.42;1.50;;;16.70;99.90;;;;;;5065885;28;20618;-82
2022/09/22 10:46:42;;;;;;;3.92;2.03;;;16.70;99.90;;;;;;5057776;28;20103;-82
2022/09/22 10:49:23;;;;;;;2.78;1.30;;;16.70;99.90;;;;;;5066442;28;20039;-86
2022/09/22 10:51:55;;;;;;;3.58;1.33;;;16.70;99.90;;;;;;5056206;28;20031;-85
2022/09/22 10:54:41;;;;;;;2.38;1.45;;;16.70;99.90;;;;;;5059455;28;20031;-83
2022/09/22 10:57:19;;;;;;;5.28;1.00;;;16.70;99.90;;;;;;5064712;28;20039;-86
2022/09/22 11:00:13;;;;;;;4.13;1.27;;;16.70;99.90;;;;;;5065945;28;20055;-82
2022/09/22 11:02:52;;;;;;;3.08;0.93;;;16.70;99.90;;;;;;5068353;28;20028;-88
2022/09/22 11:14:47;;;;;;;2.95;1.20;;;16.60;99.90;;;;;;5059187;28;20031;-79
2022/09/22 11:17:21;;;;;;;3.78;1.65;;;16.70;99.90;;;;;;5062638;28;20111;-79
2022/09/22 11:20:15;;;;;;;3.00;1.35;;;16.70;99.90;;;;;;5076559;28;20024;-84
2022/09/22 11:22:51;;;;;;;6.35;1.60;;;16.60;99.90;;;;;;5064973;28;20032;-82
2022/09/22 11:25:38;;;;;;;6.05;1.58;;;16.60;99.90;;;;;;5056712;28;20055;-82
2022/09/22 11:28:16;;;;;;;1.50;0.80;;;16.60;99.90;;;;;;5065293;28;20078;-83
2022/09/22 11:30:51;;;;;;;4.80;0.90;;;16.60;99.90;;;;;;5058072;28;20040;-84
2022/09/22 11:33:48;;;;;;;4.35;0.75;;;16.60;99.90;;;;;;5064727;28;20025;-83
2022/09/22 11:36:34;;;;;;;3.47;1.00;;;16.50;99.90;;;;;;5057278;28;20024;-81
2022/09/22 11:39:12;;;;;;;3.13;0.75;;;16.50;99.90;;;;;;5060798;28;20027;-81
2022/09/22 11:41:42;;;;;;;4.47;1.45;;;16.50;99.90;;;;;;5057936;28;20037;-80
2022/09/22 11:44:25;;;;;;;6.28;1.65;;;16.40;99.90;;;;;;5057063;28;20032;-80
2022/09/22 11:47:01;;;;;;;5.32;1.23;;;16.40;99.90;;;;;;5066868;28;20041;-79
2022/09/22 11:50:03;;;;;;;4.03;1.42;;;16.40;99.90;;;;;;5054672;28;20029;-82
2022/09/22 11:52:49;;;;;;;5.25;1.20;;;16.40;99.90;;;;;;5058716;28;20037;-83
2022/09/22 11:55:28;;;;;;;3.47;1.40;;;16.40;99.90;;;;;;5065734;28;20730;-89
2022/09/22 11:58:05;;;;;;;6.07;1.58;;;16.40;99.90;;;;;;5064884;28;20028;-86
2022/09/22 12:00:41;;;;;;;5.15;1.92;;;16.40;99.90;;;;;;5075398;28;20025;-86
2022/09/22 12:03:16;;;;;;;;;;;16.40;99.90;;;;;;5055424;28;20033;-81
2022/09/22 12:05:54;;;;;;;5.80;1.30;;;16.40;99.90;;;;;;5061636;28;19916;-81
2022/09/22 12:08:25;;;;;;;5.38;1.80;;;16.40;99.90;;;;;;5076407;28;20028;-84
2022/09/22 12:10:54;;;;;;;3.17;1.35;;;16.40;99.90;;;;;;5066055;28;20047;-81
2022/09/22 12:13:26;;;;;;;5.43;1.70;;;16.40;99.90;;;;;;5063078;28;20028;-87
2022/09/22 12:16:18;;;;;;;3.38;1.60;;;16.40;99.90;;;;;;5063442;28;20479;-84
2022/09/22 12:19:04;;;;;;;7.55;3.03;;;16.40;99.90;;;;;;5050647;28;20085;-78
2022/09/22 12:21:42;;;;;;;6.87;3.20;;;16.30;99.90;;;;;;5057895;28;20024;-87
2022/09/22 12:24:11;;;;;;;6.15;2.83;;;16.30;99.90;;;;;;5067434;28;20297;-81
2022/09/22 12:26:41;;;;;;;8.35;2.70;;;16.30;99.90;;;;;;5069565;28;20514;-82
2022/09/22 12:29:29;;;;;;;12.93;2.65;;;16.40;99.90;;;;;;5070557;28;20097;-88
2022/09/22 12:31:58;;;;;;;4.20;2.35;;;16.30;99.90;;;;;;5068871;28;20445;-83
2022/09/22 12:34:40;;;;;;;3.72;2.22;;;16.30;99.90;;;;;;5050735;28;20029;-84
2022/09/22 12:37:14;;;;;;;6.68;2.85;;;16.30;99.90;;;;;;5072697;28;20057;-80
2022/09/22 12:39:45;;;;;;;6.70;2.92;;;16.30;99.90;;;;;;5076376;28;20521;-84
2022/09/22 12:42:35;;;;;;;8.02;3.80;;;16.30;99.90;;;;;;5074469;28;20029;-85
2022/09/22 12:45:33;;;;;;;10.35;3.08;;;16.30;99.90;;;;;;5059692;28;20075;-84
2022/09/22 12:48:08;;;;;;;8.45;2.65;;;16.30;99.90;;;;;;5046968;28;20033;-85
2022/09/22 12:50:43;;;;;;;8.17;2.97;;;16.30;99.90;;;;;;5081513;28;20047;-88
2022/09/22 12:53:23;;;;;;;4.82;2.38;;;16.30;99.90;;;;;;5073357;28;20036;-88
2022/09/22 12:55:59;;;;;;;7.70;2.72;;;16.30;99.90;;;;;;5072682;28;20052;-86
2022/09/22 12:58:30;;;;;;;4.60;2.67;;;16.20;99.90;;;;;;5065215;28;20109;-82
2022/09/22 13:01:31;;;;;;;5.53;2.38;;;16.20;99.90;;;;;;5056219;28;20031;-84
2022/09/22 13:04:24;;;;;;;7.22;2.20;;;16.20;99.90;;;;;;5071587;28;20383;-86
2022/09/22 13:06:54;;;;;;;11.77;3.08;;;16.20;99.90;;;;;;5061636;28;20099;-86
2022/09/22 13:09:24;;;;;;;7.40;3.00;;;16.20;99.90;;;;;;5060934;28;20032;-85
2022/09/22 13:12:13;;;;;;;5.63;2.78;;;16.20;99.90;;;;;;5068041;28;20068;-80
2022/09/22 13:15:10;;;;;;;8.85;4.20;;;16.20;99.90;;;;;;5076639;28;20633;-84
2022/09/22 13:17:43;;;;;;;4.78;3.78;;;16.10;99.90;;;;;;5065303;28;20020;-78
2022/09/22 13:20:20;;;;;;;7.90;3.70;;;16.10;99.90;;;;;;5060665;28;20028;-81
2022/09/22 13:22:50;;;;;;;7.95;3.55;;;16.10;99.90;;;;;;5067421;28;20028;-88
2022/09/22 13:25:26;;;;;;;7.97;4.30;;;16.00;99.90;;;;;;5060012;28;20639;-87
2022/09/22 13:28:09;;;;;;;8.50;4.05;;;16.10;99.90;;;;;;5062119;28;20029;-84
2022/09/22 13:30:39;;;;;;;10.18;3.58;;;16.00;99.90;;;;;;5066570;28;20025;-85
2022/09/22 13:33:21;;;;;;;7.30;3.60;;;16.00;99.90;;;;;;5066607;28;20044;-86
2022/09/22 13:36:02;;;;;;;5.60;2.45;;;16.00;99.90;;;;;;5078518;28;20452;-83
2022/09/22 13:38:33;;;;;;;5.47;2.72;;;16.00;99.90;;;;;;5065847;28;20158;-80
2022/09/22 13:41:01;;;;;;;5.65;2.63;;;16.00;99.90;;;;;;5078796;28;20032;-85
2022/09/22 13:43:38;;;;;;;5.10;1.88;;;16.00;99.90;;;;;;5069821;28;20024;-77
2022/09/22 13:46:15;;;;;;;4.53;1.95;;;16.00;99.90;;;;;;5081153;28;20111;-84